Time;durP1;ratioP1;P1;durP2;ratioP2;P2;SDS_P1;SDS_P2;PMS_P1;PMS_P2;Temp;Humidity;BMP_temperature;BMP_pressure;BME280_temperature;BME280_humidity;BME280_pressure;Samples;Min_cycle;Max_cycle;Signal;HPM_P1;HPM_P2
2022/03/13 00:01:16;;;;;;;4.55;2.17;;;;;;;4.89;40.50;101576.69;6299125;28;20055;-74
2022/03/13 00:04:19;;;;;;;6.57;2.42;;;;;;;4.66;41.55;101576.22;6299122;28;20040;-74
2022/03/13 00:07:24;;;;;;;7.35;2.65;;;;;;;4.82;42.41;101573.34;6297746;28;20045;-75
2022/03/13 00:10:27;;;;;;;5.55;2.85;;;;;;;4.81;41.16;101568.13;6298413;28;20471;-75
2022/03/13 00:13:31;;;;;;;5.75;2.70;;;;;;;4.80;41.39;101577.69;6299509;28;20539;-75
2022/03/13 00:16:33;;;;;;;7.82;3.60;;;;;;;4.73;41.59;101570.03;6299019;28;20131;-75
2022/03/13 00:19:36;;;;;;;9.23;2.63;;;;;;;4.74;42.99;101571.75;6299204;28;20049;-74
2022/03/13 00:22:38;;;;;;;6.80;2.05;;;;;;;4.72;43.08;101573.50;6298551;28;20060;-74
2022/03/13 00:25:40;;;;;;;6.78;2.70;;;;;;;4.58;43.22;101573.72;6298881;28;20055;-75
2022/03/13 00:28:41;;;;;;;7.85;2.50;;;;;;;4.60;43.19;101574.56;6298899;28;20053;-75
2022/03/13 00:31:42;;;;;;;6.00;2.30;;;;;;;4.62;43.70;101570.19;6298323;28;20045;-74
2022/03/13 00:34:45;;;;;;;9.73;2.28;;;;;;;4.46;43.34;101566.09;6299179;28;20075;-75
2022/03/13 00:37:46;;;;;;;8.88;3.25;;;;;;;4.33;43.43;101563.69;6298579;28;20435;-75
2022/03/13 00:40:51;;;;;;;7.55;3.17;;;;;;;4.32;43.07;101563.72;6298139;28;20491;-75
2022/03/13 00:43:53;;;;;;;9.85;2.88;;;;;;;4.29;44.16;101572.41;6298226;28;20083;-74
2022/03/13 00:46:54;;;;;;;8.95;2.30;;;;;;;4.35;44.15;101571.44;6298591;28;20131;-75
2022/03/13 00:49:57;;;;;;;3.58;2.30;;;;;;;4.36;44.98;101567.09;6297547;28;20408;-75
2022/03/13 00:52:58;;;;;;;6.55;2.42;;;;;;;4.14;44.56;101561.38;6298177;28;20067;-73
2022/03/13 00:55:59;;;;;;;4.20;2.05;;;;;;;4.06;44.21;101566.66;6298192;28;20040;-73
2022/03/13 00:59:01;;;;;;;9.13;2.22;;;;;;;4.10;44.72;101568.34;6297951;28;20048;-73
2022/03/13 01:02:03;;;;;;;3.63;2.33;;;;;;;4.11;46.82;101574.41;6297596;28;20045;-72
2022/03/13 01:05:08;;;;;;;5.10;2.33;;;;;;;4.06;47.70;101574.47;6297904;28;20051;-72
2022/03/13 01:08:09;;;;;;;7.38;2.75;;;;;;;4.00;47.82;101575.41;6298195;28;20044;-75
2022/03/13 01:11:12;;;;;;;5.05;2.65;;;;;;;3.92;48.26;101569.44;6297065;28;20045;-72
2022/03/13 01:14:16;;;;;;;6.90;2.67;;;;;;;3.85;50.02;101559.97;6297703;28;20420;-73
2022/03/13 01:17:20;;;;;;;7.30;2.65;;;;;;;3.87;48.47;101560.00;6297431;28;20075;-73
2022/03/13 01:20:23;;;;;;;6.10;2.53;;;;;;;3.80;47.03;101553.97;6297244;28;20128;-74
2022/03/13 01:23:25;;;;;;;10.23;2.70;;;;;;;3.71;48.12;101551.50;6297503;28;20555;-73
2022/03/13 01:26:38;;;;;;;4.65;2.25;;;;;;;3.68;48.59;101561.91;6297354;28;20527;-72
2022/03/13 01:29:40;;;;;;;4.95;2.42;;;;;;;3.67;50.02;101553.25;6297199;28;20075;-73
2022/03/13 01:32:42;;;;;;;7.25;2.50;;;;;;;3.62;49.27;101551.59;6296958;28;20131;-73
2022/03/13 01:35:44;;;;;;;6.93;3.20;;;;;;;3.61;47.81;101552.50;6297266;28;20048;-72
2022/03/13 01:38:46;;;;;;;4.68;2.55;;;;;;;3.52;47.28;101543.06;6297057;28;20385;-73
2022/03/13 01:41:47;;;;;;;6.60;3.15;;;;;;;3.53;46.57;101540.44;6293927;28;20052;-72
2022/03/13 01:44:49;;;;;;;6.53;2.90;;;;;;;3.55;47.34;101538.69;6296579;28;20052;-73
2022/03/13 01:47:50;;;;;;;9.88;2.60;;;;;;;3.55;46.67;101537.84;6296855;28;20506;-72
2022/03/13 01:50:54;;;;;;;5.25;2.58;;;;;;;3.63;48.18;101529.94;6296052;28;20054;-72
2022/03/13 01:53:57;;;;;;;6.13;3.08;;;;;;;3.59;48.65;101539.53;6296844;28;20048;-72
2022/03/13 01:57:00;;;;;;;6.80;2.72;;;;;;;3.55;47.15;101532.63;6296633;28;20052;-72
2022/03/13 02:00:01;;;;;;;6.07;2.92;;;;;;;3.49;48.75;101527.50;6296055;28;20055;-72
2022/03/13 02:03:03;;;;;;;4.55;2.67;;;;;;;3.43;47.59;101531.03;6296269;28;20049;-73
2022/03/13 02:06:05;;;;;;;8.20;2.85;;;;;;;3.39;46.22;101513.75;6296586;28;20044;-72
2022/03/13 02:09:07;;;;;;;7.32;2.83;;;;;;;3.37;48.88;101515.53;6296590;28;20056;-72
2022/03/13 02:12:10;;;;;;;5.05;2.20;;;;;;;3.33;48.33;101511.25;6295809;28;20048;-73
2022/03/13 02:15:11;;;;;;;9.23;3.40;;;;;;;3.28;50.00;101513.88;6296533;28;20045;-72
2022/03/13 02:18:14;;;;;;;4.22;2.42;;;;;;;3.29;49.75;101505.22;6296162;28;20045;-72
2022/03/13 02:21:18;;;;;;;6.38;2.45;;;;;;;3.37;48.11;101506.88;6295745;28;20055;-72
2022/03/13 02:24:24;;;;;;;6.68;3.55;;;;;;;3.28;50.84;101511.28;6296413;28;20053;-72
2022/03/13 02:27:28;;;;;;;7.80;2.97;;;;;;;3.18;50.78;101507.06;6296412;28;20060;-72
2022/03/13 02:30:29;;;;;;;6.03;2.72;;;;;;;3.07;51.12;101514.09;6295526;28;20052;-72
2022/03/13 02:33:31;;;;;;;5.60;3.15;;;;;;;3.09;52.01;101514.06;6296467;28;20044;-72
2022/03/13 02:36:53;;;;;;;8.32;3.10;;;;;;;3.00;52.27;101521.09;6296290;28;20510;-71
2022/03/13 02:39:56;;;;;;;6.45;2.40;;;;;;;2.93;51.51;101524.63;6296121;28;20053;-72
2022/03/13 02:42:58;;;;;;;8.30;3.00;;;;;;;2.88;51.99;101522.94;6295756;28;20048;-71
2022/03/13 02:46:00;;;;;;;5.10;2.28;;;;;;;2.84;51.61;101524.72;6296194;28;20098;-71
2022/03/13 02:49:02;;;;;;;8.15;2.45;;;;;;;2.79;54.60;101529.94;6296089;28;20052;-72
2022/03/13 02:52:06;;;;;;;8.63;2.90;;;;;;;2.77;51.82;101521.31;6295540;28;20051;-73
2022/03/13 02:55:10;;;;;;;7.50;2.65;;;;;;;2.77;51.71;101518.72;6295979;28;20049;-71
2022/03/13 02:58:11;;;;;;;5.40;2.85;;;;;;;2.70;55.47;101513.59;6296289;28;20048;-72
2022/03/13 03:01:13;;;;;;;7.50;3.20;;;;;;;2.65;54.65;101513.63;6295386;28;20052;-72
2022/03/13 03:04:16;;;;;;;4.93;2.25;;;;;;;2.62;52.21;101513.66;6296186;28;20051;-71
2022/03/13 03:07:20;;;;;;;5.63;2.85;;;;;;;2.57;54.80;101518.00;6295897;28;20056;-72
2022/03/13 03:10:23;;;;;;;9.40;2.72;;;;;;;2.59;53.76;101520.59;6295041;28;20045;-72
2022/03/13 03:13:24;;;;;;;5.38;2.83;;;;;;;2.57;52.96;101517.16;6299501;28;20052;-71
2022/03/13 03:16:25;;;;;;;7.57;2.80;;;;;;;2.51;54.25;101515.47;6300273;28;20051;-72
2022/03/13 03:19:27;;;;;;;5.93;3.05;;;;;;;2.41;55.03;101511.25;6300702;28;20063;-72
2022/03/13 03:22:29;;;;;;;7.70;3.42;;;;;;;2.25;52.08;101520.84;6299745;28;20051;-72
2022/03/13 03:25:32;;;;;;;5.45;2.42;;;;;;;2.26;52.06;101515.63;6300250;28;20052;-72
2022/03/13 03:28:34;;;;;;;4.68;2.42;;;;;;;2.27;53.74;101509.59;6300229;28;20051;-72
2022/03/13 03:31:40;;;;;;;5.68;2.47;;;;;;;2.25;54.60;101533.81;6299650;28;20048;-71
2022/03/13 03:34:41;;;;;;;8.65;3.25;;;;;;;2.16;54.01;101518.31;6300050;28;20044;-71
2022/03/13 03:37:43;;;;;;;7.43;3.08;;;;;;;2.20;55.81;101520.88;6300367;28;20049;-72
2022/03/13 03:40:47;;;;;;;5.53;2.40;;;;;;;2.20;54.83;101518.28;6299351;28;20080;-72
2022/03/13 03:43:48;;;;;;;9.13;3.03;;;;;;;2.10;53.55;101518.34;6294524;28;20131;-72
2022/03/13 03:46:52;;;;;;;5.25;2.45;;;;;;;2.12;53.94;101519.19;6289778;28;20044;-72
2022/03/13 03:49:53;;;;;;;9.63;2.72;;;;;;;2.07;53.08;101513.19;6299424;28;20055;-71
2022/03/13 03:52:57;;;;;;;5.93;3.50;;;;;;;2.12;53.02;101514.88;6299196;28;20430;-72
2022/03/13 03:56:02;;;;;;;11.32;3.53;;;;;;;2.21;53.11;101508.75;6299400;28;20099;-72
2022/03/13 03:59:04;;;;;;;5.90;2.72;;;;;;;2.19;52.70;101515.72;6299944;28;20052;-72
2022/03/13 04:02:06;;;;;;;7.80;3.13;;;;;;;2.16;53.78;101511.38;6298774;28;20044;-72
2022/03/13 04:05:08;;;;;;;7.70;2.85;;;;;;;2.18;52.92;101509.66;6297867;28;20045;-72
2022/03/13 04:08:09;;;;;;;6.00;2.75;;;;;;;2.05;53.01;101520.13;6295449;28;20045;-71
2022/03/13 04:11:12;;;;;;;10.25;3.33;;;;;;;1.79;53.66;101508.16;6298688;28;20044;-72
2022/03/13 04:14:14;;;;;;;6.93;2.92;;;;;;;1.86;55.32;101516.75;6299295;28;20048;-74
2022/03/13 04:17:16;;;;;;;3.80;2.47;;;;;;;1.95;54.24;101511.50;6299270;28;20056;-72
2022/03/13 04:20:17;;;;;;;9.43;3.30;;;;;;;2.03;54.45;101513.19;6298567;28;20670;-73
2022/03/13 04:23:18;;;;;;;6.38;2.83;;;;;;;2.05;54.33;101522.72;6298574;28;20048;-74
2022/03/13 04:26:22;;;;;;;5.32;2.25;;;;;;;1.98;55.48;101509.75;6299122;28;20056;-71
2022/03/13 04:29:24;;;;;;;5.53;2.75;;;;;;;1.90;54.28;101506.34;6298796;28;20048;-72
2022/03/13 04:32:25;;;;;;;5.78;2.92;;;;;;;1.92;54.42;101498.59;6298138;28;20133;-72
2022/03/13 04:35:26;;;;;;;5.35;2.90;;;;;;;1.93;54.58;101513.25;6298651;28;20059;-72
2022/03/13 04:38:28;;;;;;;6.07;2.53;;;;;;;1.84;52.39;101508.97;6298793;28;20056;-72
2022/03/13 04:41:32;;;;;;;6.45;2.75;;;;;;;1.77;54.45;101505.56;6298091;28;20071;-72
2022/03/13 04:44:34;;;;;;;9.15;2.80;;;;;;;1.88;53.67;101508.09;6295170;28;20049;-72
2022/03/13 04:47:36;;;;;;;4.78;2.38;;;;;;;1.93;53.91;101510.66;6292498;28;20048;-72
2022/03/13 04:50:37;;;;;;;5.85;3.05;;;;;;;1.86;53.87;101509.81;6291748;28;20063;-75
2022/03/13 04:53:38;;;;;;;4.47;2.20;;;;;;;1.64;52.84;101509.09;6285416;28;20057;-75
2022/03/13 04:56:41;;;;;;;8.13;2.63;;;;;;;1.72;54.75;101509.88;6294077;28;20051;-73
2022/03/13 04:59:42;;;;;;;8.32;3.05;;;;;;;1.72;54.60;101512.47;6278331;28;20056;-72
2022/03/13 05:02:44;;;;;;;8.18;3.67;;;;;;;1.66;53.70;101517.69;6272766;28;20045;-72
2022/03/13 05:05:45;;;;;;;7.22;3.17;;;;;;;1.60;55.15;101519.47;6275763;28;20053;-72
2022/03/13 05:08:49;;;;;;;5.60;2.63;;;;;;;1.44;55.58;101523.84;6275680;28;20052;-72
2022/03/13 05:11:53;;;;;;;11.18;2.85;;;;;;;1.37;57.97;101523.00;6274971;28;20048;-72
2022/03/13 05:14:55;;;;;;;4.65;2.42;;;;;;;1.40;57.22;101525.56;6278099;28;20056;-73
2022/03/13 05:17:56;;;;;;;6.32;3.50;;;;;;;1.38;56.31;101527.31;6272851;28;20056;-73
2022/03/13 05:20:58;;;;;;;6.53;3.38;;;;;;;1.39;56.28;101525.56;6272183;28;20048;-72
2022/03/13 05:23:59;;;;;;;12.52;4.00;;;;;;;1.38;56.63;101527.31;6272903;28;20504;-73
2022/03/13 05:27:02;;;;;;;7.43;3.20;;;;;;;1.35;56.63;101522.13;6277878;28;20049;-72
2022/03/13 05:30:04;;;;;;;8.45;3.35;;;;;;;1.25;55.15;101510.94;6283371;28;20044;-72
2022/03/13 05:33:05;;;;;;;4.93;2.70;;;;;;;1.26;55.42;101517.84;6283128;28;20041;-72
2022/03/13 05:36:07;;;;;;;9.65;2.58;;;;;;;1.29;54.98;101516.97;6281720;28;20044;-72
2022/03/13 05:39:09;;;;;;;4.07;2.95;;;;;;;1.28;55.54;101523.03;6283703;28;20045;-72
2022/03/13 05:42:12;;;;;;;5.85;2.58;;;;;;;1.31;55.18;101527.31;6282425;28;20048;-71
2022/03/13 05:45:16;;;;;;;9.18;3.15;;;;;;;1.19;54.56;101523.91;6286198;28;20673;-72
2022/03/13 05:48:18;;;;;;;7.13;3.28;;;;;;;1.02;54.26;101526.53;6290911;28;20183;-72
2022/03/13 05:51:20;;;;;;;4.70;2.72;;;;;;;1.11;55.45;101522.19;6296044;28;20041;-73
2022/03/13 05:54:21;;;;;;;7.90;2.53;;;;;;;0.82;55.17;101522.22;6286700;28;20063;-72
2022/03/13 05:57:24;;;;;;;3.92;2.72;;;;;;;0.99;55.69;101525.66;6284304;28;20048;-72
2022/03/13 06:00:26;;;;;;;4.30;2.70;;;;;;;0.98;55.99;101529.13;6278007;28;20496;-73
2022/03/13 06:03:28;;;;;;;2.22;1.73;;;;;;;0.78;54.70;101529.16;6272209;28;20527;-72
2022/03/13 06:06:31;;;;;;;6.30;3.30;;;;;;;0.85;55.05;101530.84;6273068;28;20064;-72
2022/03/13 06:09:32;;;;;;;7.75;3.20;;;;;;;0.78;54.23;101530.88;6295619;28;20053;-72
2022/03/13 06:12:36;;;;;;;4.53;2.63;;;;;;;0.93;55.61;101531.72;6295997;28;20055;-72
2022/03/13 06:15:38;;;;;;;4.97;2.50;;;;;;;0.85;54.60;101530.84;6296391;28;20060;-73
2022/03/13 06:18:39;;;;;;;8.63;3.00;;;;;;;0.87;55.70;101531.72;6296546;28;20067;-72
2022/03/13 06:21:41;;;;;;;5.80;2.47;;;;;;;0.88;54.56;101533.44;6295624;28;20044;-75
2022/03/13 06:24:42;;;;;;;6.88;3.20;;;;;;;0.94;54.49;101529.97;6296562;28;20055;-72
2022/03/13 06:27:45;;;;;;;5.93;3.08;;;;;;;1.06;54.26;101532.56;6296337;28;20075;-72
2022/03/13 06:30:47;;;;;;;9.95;3.22;;;;;;;0.92;54.81;101530.00;6295764;28;20052;-72
2022/03/13 06:33:48;;;;;;;5.22;2.53;;;;;;;1.04;54.84;101526.50;6295969;28;20420;-71
2022/03/13 06:36:49;;;;;;;6.72;3.40;;;;;;;1.15;56.95;101527.38;6292637;28;20045;-72
2022/03/13 06:39:51;;;;;;;5.85;2.80;;;;;;;1.25;55.73;101538.56;6282611;28;20051;-75
2022/03/13 06:42:55;;;;;;;5.15;2.30;;;;;;;1.23;56.74;101535.13;6281440;28;20051;-72
2022/03/13 06:45:57;;;;;;;8.25;2.72;;;;;;;1.23;53.97;101530.81;6282059;28;20040;-72
2022/03/13 06:48:59;;;;;;;4.82;3.35;;;;;;;1.25;54.04;101533.38;6286884;28;20064;-73
2022/03/13 06:52:00;;;;;;;14.52;3.15;;;;;;;1.32;53.67;101541.97;6285983;28;20127;-72
2022/03/13 06:55:01;;;;;;;4.68;2.58;;;;;;;1.27;53.43;101535.13;6276135;28;20072;-72
2022/03/13 06:58:04;;;;;;;4.35;2.53;;;;;;;1.32;53.04;101529.94;6276372;28;20056;-72
2022/03/13 07:01:06;;;;;;;4.93;2.70;;;;;;;1.47;54.01;101536.78;6275416;28;20049;-72
2022/03/13 07:04:07;;;;;;;5.00;2.30;;;;;;;1.54;54.26;101546.22;6276030;28;20053;-72
2022/03/13 07:07:09;;;;;;;4.80;2.97;;;;;;;1.60;54.79;101532.44;6275859;28;20055;-72
2022/03/13 07:10:11;;;;;;;6.13;2.20;;;;;;;1.68;51.89;101535.81;6275426;28;20075;-72
2022/03/13 07:13:18;;;;;;;8.00;2.58;;;;;;;1.60;51.90;101543.66;6275391;28;20049;-72
2022/03/13 07:16:20;;;;;;;8.32;2.97;;;;;;;1.70;52.59;101547.06;6275374;28;20053;-72
2022/03/13 07:19:21;;;;;;;4.72;2.40;;;;;;;1.73;53.06;101542.72;6275715;28;20049;-72
2022/03/13 07:22:22;;;;;;;4.20;2.63;;;;;;;1.89;53.79;101540.91;6274911;28;20408;-72
2022/03/13 07:25:24;;;;;;;5.68;2.15;;;;;;;1.98;53.72;101546.06;6275565;28;20052;-72
2022/03/13 07:28:27;;;;;;;7.25;2.20;;;;;;;1.95;53.10;101548.69;6275400;28;20051;-72
2022/03/13 07:31:29;;;;;;;4.97;2.53;;;;;;;1.90;52.55;101542.63;6274756;28;20051;-72
2022/03/13 07:34:30;;;;;;;7.05;2.65;;;;;;;1.97;53.46;101549.53;6275313;28;20059;-72
2022/03/13 07:37:32;;;;;;;4.80;2.55;;;;;;;2.03;51.62;101549.47;6275410;28;20411;-72
2022/03/13 07:40:33;;;;;;;7.95;2.80;;;;;;;1.99;52.59;101542.59;6281059;28;20063;-73
2022/03/13 07:43:36;;;;;;;8.70;2.95;;;;;;;2.03;51.32;101544.28;6285287;28;20515;-72
2022/03/13 07:46:38;;;;;;;8.10;2.63;;;;;;;2.18;52.53;101537.28;6299444;28;20522;-72
2022/03/13 07:49:39;;;;;;;6.82;2.30;;;;;;;2.26;52.00;101544.16;6295471;28;20049;-72
2022/03/13 07:52:40;;;;;;;7.32;2.75;;;;;;;2.36;54.22;101534.59;6298953;28;20051;-73
2022/03/13 07:55:42;;;;;;;6.22;3.20;;;;;;;2.49;52.35;101536.22;6299449;28;20045;-72
2022/03/13 07:58:45;;;;;;;5.40;2.90;;;;;;;2.49;52.71;101540.56;6298521;28;20076;-72
2022/03/13 08:01:47;;;;;;;4.70;3.08;;;;;;;2.57;50.11;101533.59;6298803;28;20433;-72
2022/03/13 08:04:49;;;;;;;7.32;2.67;;;;;;;2.72;49.69;101543.81;6299267;28;20062;-72
2022/03/13 08:07:52;;;;;;;4.90;2.33;;;;;;;2.80;50.12;101538.59;6299288;28;20049;-72
2022/03/13 08:10:54;;;;;;;5.63;2.88;;;;;;;2.87;50.29;101547.19;6298655;28;20561;-73
2022/03/13 08:13:57;;;;;;;6.65;2.63;;;;;;;2.96;49.02;101550.56;6293462;28;20048;-73
2022/03/13 08:16:58;;;;;;;5.82;2.47;;;;;;;3.04;49.47;101543.56;6298904;28;20036;-72
2022/03/13 08:19:59;;;;;;;7.80;2.25;;;;;;;3.15;48.42;101548.66;6298418;28;20737;-73
2022/03/13 08:23:01;;;;;;;4.72;2.67;;;;;;;3.20;50.66;101551.19;6294875;28;20044;-73
2022/03/13 08:26:02;;;;;;;10.77;2.50;;;;;;;3.28;49.79;101558.03;6288319;28;20456;-73
2022/03/13 08:29:06;;;;;;;5.72;2.88;;;;;;;3.39;49.08;101549.28;6281123;28;20079;-73
2022/03/13 08:32:09;;;;;;;5.82;3.10;;;;;;;3.49;48.48;101549.13;6279521;28;20357;-72
2022/03/13 08:35:11;;;;;;;4.05;2.47;;;;;;;3.61;48.74;101545.56;6285331;28;20565;-72
2022/03/13 08:38:13;;;;;;;5.10;2.65;;;;;;;3.72;48.02;101548.00;6286810;28;20159;-72
2022/03/13 08:41:14;;;;;;;7.15;2.95;;;;;;;3.76;49.15;101541.91;6297649;28;20074;-72
2022/03/13 08:44:17;;;;;;;7.95;3.55;;;;;;;3.85;48.02;101535.72;6298611;28;20135;-72
2022/03/13 08:47:18;;;;;;;6.93;2.70;;;;;;;4.03;48.76;101538.94;6298052;28;20462;-72
2022/03/13 08:50:20;;;;;;;11.25;3.25;;;;;;;4.13;48.78;101533.59;6290983;28;20500;-69
2022/03/13 08:53:21;;;;;;;4.90;2.78;;;;;;;4.23;46.76;101536.09;6286871;28;20170;-70
2022/03/13 08:56:23;;;;;;;5.10;2.30;;;;;;;4.30;47.95;101537.69;6283720;28;20526;-70
2022/03/13 08:59:26;;;;;;;5.97;2.97;;;;;;;4.37;46.85;101530.66;6284030;28;20488;-68
2022/03/13 09:02:28;;;;;;;6.45;2.50;;;;;;;4.47;46.37;101540.06;6292495;28;20055;-69
2022/03/13 09:05:29;;;;;;;5.88;3.30;;;;;;;4.56;45.82;101547.72;6296334;28;20067;-69
2022/03/13 09:08:30;;;;;;;7.78;2.97;;;;;;;4.75;45.53;101537.88;6292341;28;20056;-69
2022/03/13 09:11:34;;;;;;;8.65;3.10;;;;;;;4.76;46.20;101536.13;6293439;28;20052;-68
2022/03/13 09:14:39;;;;;;;9.15;2.67;;;;;;;4.80;46.30;101533.44;6297489;28;20041;-69
2022/03/13 09:17:40;;;;;;;6.78;3.20;;;;;;;4.85;45.99;101541.16;6297581;28;20052;-69
2022/03/13 09:20:42;;;;;;;5.65;2.83;;;;;;;4.91;46.05;101540.22;6296931;28;20051;-70
2022/03/13 09:23:43;;;;;;;7.40;2.75;;;;;;;5.03;45.32;101526.97;6297643;28;20052;-69
2022/03/13 09:26:45;;;;;;;5.85;2.65;;;;;;;5.29;42.86;101522.13;6297309;28;20419;-69
2022/03/13 09:29:48;;;;;;;6.05;2.80;;;;;;;5.37;44.37;101528.97;6273602;28;20060;-69
2022/03/13 09:32:50;;;;;;;5.55;2.53;;;;;;;5.43;42.65;101521.88;6271884;28;20049;-69
2022/03/13 09:35:52;;;;;;;6.82;2.63;;;;;;;5.70;41.46;101517.00;6293645;28;20499;-69
2022/03/13 09:38:54;;;;;;;7.45;3.05;;;;;;;5.79;41.65;101508.97;6292348;28;20097;-69
2022/03/13 09:41:55;;;;;;;5.85;2.97;;;;;;;5.83;41.60;101511.50;6295103;28;20036;-69
2022/03/13 09:44:59;;;;;;;5.63;2.42;;;;;;;5.93;42.62;101506.09;6294344;28;20067;-68
2022/03/13 09:48:02;;;;;;;7.07;2.50;;;;;;;6.12;41.87;101496.97;6293671;28;20135;-69
2022/03/13 09:51:07;;;;;;;7.88;2.40;;;;;;;6.24;41.32;101495.84;6295878;28;20048;-71
2022/03/13 09:54:08;;;;;;;6.15;2.60;;;;;;;6.22;41.87;101490.66;6296553;28;20044;-69
2022/03/13 09:57:09;;;;;;;6.70;3.00;;;;;;;6.31;41.38;101490.44;6295537;28;20049;-71
2022/03/13 10:00:14;;;;;;;6.97;2.90;;;;;;;6.39;40.62;101495.47;6292647;28;20048;-71
2022/03/13 10:03:16;;;;;;;4.80;2.60;;;;;;;6.48;40.29;101504.84;6293938;28;20048;-70
2022/03/13 10:06:17;;;;;;;5.32;2.40;;;;;;;6.58;42.23;101493.25;6291635;28;20119;-71
2022/03/13 10:09:25;;;;;;;5.03;2.90;;;;;;;6.79;40.84;101479.66;6289841;28;20045;-72
2022/03/13 10:12:27;;;;;;;6.82;3.15;;;;;;;6.97;40.39;101473.09;6287453;28;20043;-71
2022/03/13 10:15:39;;;;;;;5.63;3.17;;;;;;;7.07;39.93;101471.94;6290829;28;20052;-71
2022/03/13 10:18:41;;;;;;;9.95;3.42;;;;;;;7.14;39.40;101464.81;6293710;28;20494;-72
2022/03/13 10:22:05;;;;;;;4.90;2.72;;;;;;;7.40;39.07;101452.75;6277306;28;20056;-71
2022/03/13 10:25:07;;;;;;;4.00;2.35;;;;;;;7.52;37.87;101455.00;6290393;28;20052;-72
2022/03/13 10:28:17;;;;;;;5.13;2.47;;;;;;;7.50;39.15;101459.44;6291412;28;20056;-72
2022/03/13 10:31:20;;;;;;;5.28;2.45;;;;;;;7.58;40.03;101458.28;6295451;28;20048;-70
2022/03/13 10:34:23;;;;;;;6.10;3.20;;;;;;;7.71;39.28;101456.19;6296345;28;20048;-70
2022/03/13 10:37:37;;;;;;;5.78;2.63;;;;;;;7.96;38.27;101456.31;6296128;28;20052;-70
2022/03/13 10:40:39;;;;;;;5.60;2.88;;;;;;;8.16;37.62;101460.91;6295654;28;20044;-69
2022/03/13 10:43:56;;;;;;;7.25;2.80;;;;;;;8.28;37.27;101455.28;6295753;28;20048;-70
2022/03/13 10:47:02;;;;;;;9.48;3.85;;;;;;;8.68;35.82;101450.53;6280954;28;20412;-71
2022/03/13 10:50:06;;;;;;;5.07;2.60;;;;;;;8.79;35.36;101451.00;6270868;28;20049;-70
2022/03/13 10:53:10;;;;;;;5.15;2.40;;;;;;;8.90;34.87;101456.69;6270988;28;20492;-70
2022/03/13 10:56:13;;;;;;;4.32;2.45;;;;;;;8.85;36.11;101451.63;6271028;28;20049;-69
2022/03/13 10:59:18;;;;;;;6.53;2.45;;;;;;;8.80;36.26;101447.44;6281000;28;20069;-70
2022/03/13 11:02:25;;;;;;;4.88;2.58;;;;;;;8.89;36.19;101445.38;6290437;28;20427;-70
2022/03/13 11:05:27;;;;;;;5.30;2.42;;;;;;;9.04;35.94;101445.75;6282144;28;20044;-71
2022/03/13 11:08:28;;;;;;;5.00;2.60;;;;;;;9.15;35.21;101435.72;6291993;28;20127;-70
2022/03/13 11:11:31;;;;;;;3.97;2.42;;;;;;;9.29;35.85;101437.84;6294523;28;20057;-70
2022/03/13 11:14:33;;;;;;;5.65;2.65;;;;;;;9.35;34.42;101438.44;6290077;28;20048;-70
2022/03/13 11:17:37;;;;;;;4.93;2.42;;;;;;;9.57;35.23;101438.50;6289199;28;20185;-70
2022/03/13 11:20:40;;;;;;;6.18;2.72;;;;;;;9.74;34.74;101430.00;6295175;28;20045;-70
2022/03/13 11:23:41;;;;;;;5.88;3.00;;;;;;;9.97;34.21;101429.09;6295661;28;20044;-70
2022/03/13 11:26:44;;;;;;;5.25;2.40;;;;;;;10.03;35.37;101418.34;6295904;28;20056;-70
2022/03/13 11:29:47;;;;;;;6.75;3.17;;;;;;;10.29;33.49;101421.72;6290197;28;20389;-70
2022/03/13 11:32:51;;;;;;;7.38;2.80;;;;;;;10.50;33.77;101425.22;6291309;28;20036;-70
2022/03/13 11:35:53;;;;;;;7.47;3.20;;;;;;;10.78;32.12;101427.53;6299731;28;20052;-70
2022/03/13 11:38:57;;;;;;;4.32;2.28;;;;;;;11.01;33.30;101421.25;6299795;28;20051;-70
2022/03/13 11:41:59;;;;;;;5.72;3.22;;;;;;;11.17;31.96;101414.38;6297714;28;20553;-70
2022/03/13 11:45:11;;;;;;;8.30;3.08;;;;;;;11.29;31.41;101415.63;6283556;28;20063;-70
2022/03/13 11:48:44;;;;;;;8.18;3.20;;;;;;;11.46;31.95;101422.75;6296335;28;20135;-71
2022/03/13 11:51:45;;;;;;;5.47;2.35;;;;;;;11.53;30.62;101424.16;6290256;28;20047;-70
2022/03/13 11:54:55;;;;;;;6.75;2.83;;;;;;;11.70;31.38;101416.31;6286239;28;20061;-70
2022/03/13 11:58:01;;;;;;;4.65;2.40;;;;;;;11.86;30.86;101416.50;6285873;28;20407;-70
2022/03/13 12:01:07;;;;;;;5.47;3.13;;;;;;;11.94;30.36;101411.69;6285062;28;20130;-71
2022/03/13 12:04:28;;;;;;;9.93;3.25;;;;;;;12.17;29.87;101410.56;6286966;28;20045;-70
2022/03/13 12:07:31;;;;;;;10.20;2.80;;;;;;;12.32;30.63;101406.34;6285349;28;20052;-70
2022/03/13 12:10:37;;;;;;;5.40;3.40;;;;;;;12.39;29.14;101398.03;6285502;28;20053;-71
2022/03/13 12:13:48;;;;;;;4.30;2.28;;;;;;;12.56;29.21;101396.31;6286824;28;20051;-71
2022/03/13 12:17:08;;;;;;;4.88;2.97;;;;;;;12.66;29.22;101394.91;6282029;28;20053;-71
2022/03/13 12:20:20;;;;;;;;;;;;;;;12.77;29.77;101400.50;6274509;28;20045;-71
2022/03/13 12:23:27;;;;;;;8.65;2.95;;;;;;;13.03;29.69;101399.09;6274320;28;20499;-70
2022/03/13 12:26:30;;;;;;;4.85;2.75;;;;;;;13.10;28.41;101397.00;6274274;28;20041;-71
2022/03/13 12:29:32;;;;;;;9.75;3.13;;;;;;;13.19;29.56;101401.81;6281968;28;20064;-71
2022/03/13 12:32:35;;;;;;;3.28;2.38;;;;;;;13.36;27.75;101393.00;6293997;28;20265;-70
2022/03/13 12:35:38;;;;;;;4.75;3.13;;;;;;;13.35;29.52;101393.91;6298549;28;20158;-71
2022/03/13 12:38:43;;;;;;;6.75;3.28;;;;;;;13.39;29.06;101382.25;6298655;28;20052;-71
2022/03/13 12:41:45;;;;;;;4.47;2.63;;;;;;;13.40;27.69;101376.91;6288418;28;20041;-70
2022/03/13 12:44:59;;;;;;;7.82;2.50;;;;;;;13.47;29.96;101376.56;6285406;28;20056;-71
2022/03/13 12:48:01;;;;;;;8.13;3.58;;;;;;;13.68;29.48;101384.16;6287422;28;20146;-70
2022/03/13 12:51:04;;;;;;;5.53;3.47;;;;;;;13.81;29.54;101380.81;6274793;28;20061;-72
2022/03/13 12:54:08;;;;;;;5.45;3.40;;;;;;;14.04;28.82;101375.06;6273360;28;20071;-71
2022/03/13 12:57:10;;;;;;;4.95;2.75;;;;;;;14.18;27.63;101369.84;6273372;28;20381;-71
2022/03/13 13:00:13;;;;;;;6.15;3.67;;;;;;;14.21;28.44;101371.44;6290699;28;20052;-71
2022/03/13 13:03:14;;;;;;;6.57;3.25;;;;;;;14.34;28.49;101366.28;6297505;28;20044;-71
2022/03/13 13:06:34;;;;;;;6.28;3.28;;;;;;;14.39;27.38;101361.56;6298080;28;20055;-71
2022/03/13 13:09:36;;;;;;;;;;;;;;;14.39;27.03;101362.41;6298433;28;20055;-71
2022/03/13 13:12:39;;;;;;;7.90;2.85;;;;;;;14.59;25.92;101369.19;6297414;28;19920;-71
2022/03/13 13:15:40;;;;;;;7.78;3.30;;;;;;;14.56;26.65;101358.81;6294637;28;20052;-71
2022/03/13 13:18:42;;;;;;;6.07;2.90;;;;;;;14.62;27.62;101349.63;6292986;28;20052;-71
2022/03/13 13:21:56;;;;;;;4.68;2.63;;;;;;;14.74;27.07;101354.19;6290046;28;20485;-71
2022/03/13 13:24:58;;;;;;;4.30;2.72;;;;;;;14.86;25.47;101353.44;6287759;28;20547;-71
2022/03/13 13:28:00;;;;;;;10.52;3.92;;;;;;;14.94;26.14;101355.59;6295216;28;20044;-74
2022/03/13 13:31:01;;;;;;;4.57;2.90;;;;;;;14.86;26.98;101352.59;6296951;28;20059;-73
2022/03/13 13:34:16;;;;;;;6.35;2.90;;;;;;;15.03;26.73;101352.38;6297397;28;20040;-71
2022/03/13 13:37:18;;;;;;;6.43;2.67;;;;;;;15.22;26.59;101352.09;6290750;28;20051;-71
2022/03/13 13:40:20;;;;;;;4.68;2.72;;;;;;;15.22;26.21;101342.34;6295767;28;20550;-70
2022/03/13 13:43:27;;;;;;;6.63;3.33;;;;;;;15.09;24.84;101351.16;6288343;28;20036;-71
2022/03/13 13:46:30;;;;;;;6.50;3.67;;;;;;;15.08;25.14;101352.97;6279128;28;20052;-71
2022/03/13 13:49:31;;;;;;;5.18;2.83;;;;;;;15.10;26.10;101350.22;6287770;28;20051;-71
2022/03/13 13:52:34;;;;;;;5.88;3.00;;;;;;;15.34;27.45;101353.09;6294042;28;20056;-71
2022/03/13 13:55:37;;;;;;;5.28;2.78;;;;;;;15.50;26.06;101347.69;6296079;28;20044;-71
2022/03/13 13:58:39;;;;;;;10.35;3.42;;;;;;;15.52;26.12;101348.44;6296388;28;20056;-72
2022/03/13 14:01:41;;;;;;;6.97;3.05;;;;;;;15.59;25.31;101341.81;6296030;28;20520;-71
2022/03/13 14:04:45;;;;;;;7.97;3.30;;;;;;;15.46;27.01;101347.88;6292411;28;20051;-71
2022/03/13 14:07:48;;;;;;;3.65;2.55;;;;;;;15.57;24.73;101347.19;6296468;28;20060;-72
2022/03/13 14:10:49;;;;;;;4.28;2.80;;;;;;;15.64;24.91;101335.28;6295930;28;20051;-72
2022/03/13 14:13:51;;;;;;;5.43;2.60;;;;;;;15.48;26.04;101335.38;6296584;28;20051;-71
2022/03/13 14:16:53;;;;;;;4.68;2.58;;;;;;;15.57;25.63;101338.38;6296360;28;20048;-72
2022/03/13 14:19:54;;;;;;;6.47;3.38;;;;;;;15.53;25.62;101332.44;6294016;28;20052;-71